Time;durP1;ratioP1;P1;durP2;ratioP2;P2;SDS_P1;SDS_P2;PMS_P1;PMS_P2;Temp;Humidity;BMP_temperature;BMP_pressure;BME280_temperature;BME280_humidity;BME280_pressure;Samples;Min_cycle;Max_cycle;Signal;HPM_P1;HPM_P2
2022/09/07 00:00:26;;;;;;;9.13;6.30;;;14.00;99.90;;;;;;4127479;28;20459;-67
2022/09/07 00:02:27;;;;;;;10.23;5.77;;;14.00;99.90;;;;;;4128195;28;20110;-62
2022/09/07 00:04:28;;;;;;;8.47;5.73;;;14.00;99.90;;;;;;4127636;28;20549;-63
2022/09/07 00:06:30;;;;;;;11.00;5.80;;;14.00;99.90;;;;;;4128198;28;20038;-63
2022/09/07 00:08:31;;;;;;;11.63;6.47;;;14.00;99.90;;;;;;4127323;28;20941;-62
2022/09/07 00:10:32;;;;;;;12.73;6.28;;;14.00;99.90;;;;;;4128023;28;20041;-66
2022/09/07 00:12:34;;;;;;;11.73;6.03;;;14.00;99.90;;;;;;4127615;28;20042;-62
2022/09/07 00:14:35;;;;;;;7.28;5.95;;;14.00;99.90;;;;;;4127846;28;20077;-64
2022/09/07 00:16:36;;;;;;;10.35;5.70;;;14.00;99.90;;;;;;4127296;28;20038;-63
2022/09/07 00:18:37;;;;;;;13.67;5.77;;;14.10;99.90;;;;;;4127815;28;20837;-62
2022/09/07 00:20:39;;;;;;;13.70;6.57;;;14.10;99.90;;;;;;4127621;28;20023;-63
2022/09/07 00:22:40;;;;;;;12.87;6.37;;;14.10;99.90;;;;;;4128175;28;20027;-62
2022/09/07 00:24:41;;;;;;;7.82;6.05;;;14.10;99.90;;;;;;4127778;28;20080;-62
2022/09/07 00:26:42;;;;;;;8.10;6.05;;;14.10;99.90;;;;;;4127728;28;20043;-64
2022/09/07 00:28:44;;;;;;;10.38;6.05;;;14.10;99.90;;;;;;4127263;28;20482;-63
2022/09/07 00:30:45;;;;;;;12.47;5.60;;;14.20;99.90;;;;;;4129248;28;20501;-62
2022/09/07 00:32:46;;;;;;;17.77;6.17;;;14.20;99.90;;;;;;4130808;28;20080;-63
2022/09/07 00:34:49;;;;;;;15.10;6.73;;;14.20;99.90;;;;;;4130619;28;20052;-64
2022/09/07 00:36:50;;;;;;;11.07;6.47;;;14.20;99.90;;;;;;4131070;28;20034;-68
2022/09/07 00:38:53;;;;;;;11.43;6.53;;;14.20;99.90;;;;;;4130260;28;20093;-64
2022/09/07 00:40:54;;;;;;;10.03;6.33;;;14.20;99.90;;;;;;4131019;28;20069;-62
2022/09/07 00:42:55;;;;;;;11.20;6.73;;;14.20;99.90;;;;;;4130340;28;20446;-63
2022/09/07 00:45:06;;;;;;;14.63;7.37;;;14.10;99.90;;;;;;4130750;28;20047;-63
2022/09/07 00:47:23;;;;;;;14.77;7.30;;;14.10;99.90;;;;;;4130254;28;20104;-63
2022/09/07 00:49:25;;;;;;;10.57;7.47;;;14.00;99.90;;;;;;4130622;28;20042;-63
2022/09/07 00:51:33;;;;;;;9.47;6.77;;;13.90;99.90;;;;;;4130234;28;20073;-63
2022/09/07 00:53:48;;;;;;;12.60;6.57;;;13.80;99.90;;;;;;4131170;28;20657;-64
2022/09/07 00:55:51;;;;;;;11.77;6.87;;;13.80;99.90;;;;;;4130126;28;20034;-63
2022/09/07 00:57:54;;;;;;;11.90;7.00;;;13.80;99.90;;;;;;4130609;28;21449;-63
2022/09/07 00:59:56;;;;;;;14.60;6.90;;;13.80;99.90;;;;;;4130385;28;20491;-65
2022/09/07 01:01:58;;;;;;;17.57;7.07;;;13.80;99.90;;;;;;4130479;28;20133;-63
2022/09/07 01:04:01;;;;;;;9.00;6.57;;;13.80;99.90;;;;;;4130326;28;20073;-62
2022/09/07 01:06:28;;;;;;;14.93;6.73;;;13.80;99.90;;;;;;4130593;28;20042;-63
2022/09/07 01:08:29;;;;;;;11.73;6.77;;;13.80;99.90;;;;;;4129718;28;20495;-62
2022/09/07 01:10:31;;;;;;;13.23;6.43;;;13.80;99.90;;;;;;4130336;28;20495;-63
2022/09/07 01:12:32;;;;;;;14.10;6.57;;;13.80;99.90;;;;;;4130260;28;20065;-65
2022/09/07 01:14:41;;;;;;;10.80;6.70;;;13.90;99.90;;;;;;4130261;28;20050;-62
2022/09/07 01:17:20;;;;;;;10.47;6.93;;;13.90;99.90;;;;;;4130410;28;20514;-63
2022/09/07 01:19:43;;;;;;;12.13;7.00;;;13.80;99.90;;;;;;4130255;28;20034;-63
2022/09/07 01:22:11;;;;;;;10.17;6.43;;;13.80;99.90;;;;;;4129849;28;20427;-64
2022/09/07 01:24:53;;;;;;;18.07;8.77;;;13.90;99.90;;;;;;4130666;28;20034;-64
2022/09/07 01:27:26;;;;;;;16.20;7.93;;;13.90;99.90;;;;;;4129966;28;20113;-65
2022/09/07 01:29:32;;;;;;;14.43;7.50;;;13.90;99.90;;;;;;4115519;28;20577;-63
2022/09/07 01:31:55;;;;;;;12.00;7.37;;;13.90;99.90;;;;;;4129903;28;20031;-63
2022/09/07 01:34:21;;;;;;;15.67;7.30;;;13.90;99.90;;;;;;4129937;28;20438;-63
2022/09/07 01:36:31;;;;;;;10.83;6.13;;;14.00;99.90;;;;;;4129381;28;20046;-64
2022/09/07 01:38:42;;;;;;;13.93;6.43;;;14.00;99.90;;;;;;4129857;28;20042;-63
2022/09/07 01:41:10;;;;;;;12.87;6.43;;;14.10;99.90;;;;;;4129648;28;20019;-63
2022/09/07 01:43:34;;;;;;;15.10;6.70;;;14.10;99.90;;;;;;4129452;28;20483;-63
2022/09/07 01:45:40;;;;;;;9.20;6.20;;;14.10;99.90;;;;;;4122456;28;20050;-64
2022/09/07 01:47:48;;;;;;;15.03;7.43;;;14.10;99.90;;;;;;4129650;28;21176;-63
2022/09/07 01:50:08;;;;;;;11.23;6.50;;;14.00;99.90;;;;;;4128714;28;20050;-64
2022/09/07 01:52:41;;;;;;;12.40;6.85;;;14.00;99.90;;;;;;4129350;28;20614;-63
2022/09/07 01:54:50;;;;;;;12.38;6.65;;;14.00;99.90;;;;;;4128171;28;20030;-67
2022/09/07 01:56:57;;;;;;;10.90;7.07;;;14.10;99.90;;;;;;4129445;28;20450;-63
2022/09/07 01:59:29;;;;;;;16.97;6.37;;;14.10;99.90;;;;;;4129712;28;20035;-63
2022/09/07 02:01:44;;;;;;;7.07;5.90;;;14.10;99.90;;;;;;4129011;28;20101;-63
2022/09/07 02:04:07;;;;;;;10.80;6.13;;;14.10;99.90;;;;;;4129431;28;20441;-63
2022/09/07 02:06:26;;;;;;;13.65;6.13;;;14.20;99.90;;;;;;4129249;28;20057;-64
2022/09/07 02:08:39;;;;;;;9.23;6.17;;;14.20;99.90;;;;;;4129368;28;20085;-63
2022/09/07 02:10:49;;;;;;;10.82;6.28;;;14.20;99.90;;;;;;4129492;28;20110;-64
2022/09/07 02:12:58;;;;;;;11.25;5.50;;;14.10;99.90;;;;;;4129101;28;20038;-69
2022/09/07 02:15:04;;;;;;;9.60;6.47;;;14.10;99.90;;;;;;4129186;28;20476;-63
2022/09/07 02:17:41;;;;;;;12.60;5.80;;;14.00;99.90;;;;;;4128454;28;20039;-63
2022/09/07 02:19:58;;;;;;;10.13;6.00;;;14.00;99.90;;;;;;4129286;28;20073;-63
2022/09/07 02:22:04;;;;;;;9.87;6.17;;;14.00;99.90;;;;;;4129013;28;20022;-63
2022/09/07 02:24:28;;;;;;;22.10;7.57;;;14.00;99.90;;;;;;4129695;28;20026;-63
2022/09/07 02:26:31;;;;;;;11.00;5.63;;;13.90;99.90;;;;;;4128767;28;20100;-63
2022/09/07 02:28:34;;;;;;;8.73;6.20;;;13.90;99.90;;;;;;4129158;28;20054;-63
2022/09/07 02:30:36;;;;;;;12.17;6.37;;;14.00;99.90;;;;;;4128179;28;20050;-69
2022/09/07 02:32:37;;;;;;;10.38;6.30;;;14.00;99.90;;;;;;4129199;28;20038;-63
2022/09/07 02:34:38;;;;;;;13.65;7.50;;;14.10;99.90;;;;;;4128909;28;20027;-64
2022/09/07 02:36:44;;;;;;;12.70;7.28;;;14.10;99.90;;;;;;4128979;28;20030;-63
2022/09/07 02:38:45;;;;;;;16.17;7.75;;;14.20;99.90;;;;;;4128989;28;20517;-64
2022/09/07 02:40:52;;;;;;;16.47;7.73;;;14.30;99.90;;;;;;4128968;28;20030;-63
2022/09/07 02:42:53;;;;;;;14.63;6.15;;;14.30;99.90;;;;;;4128848;28;20088;-64
2022/09/07 02:44:54;;;;;;;12.30;6.63;;;14.40;99.90;;;;;;4128694;28;20545;-62
2022/09/07 02:47:16;;;;;;;12.02;6.72;;;14.50;99.90;;;;;;4127502;28;20042;-63
2022/09/07 02:49:23;;;;;;;10.05;6.72;;;14.60;99.90;;;;;;4128837;28;20522;-64
2022/09/07 02:52:02;;;;;;;10.82;6.05;;;14.70;99.90;;;;;;4128551;28;20461;-62
2022/09/07 02:54:18;;;;;;;13.10;5.60;;;14.70;99.90;;;;;;4128504;28;20647;-64
2022/09/07 02:56:34;;;;;;;11.85;6.30;;;14.70;99.90;;;;;;4128612;28;20034;-64
2022/09/07 02:58:57;;;;;;;15.90;7.00;;;14.70;99.90;;;;;;4128520;28;20124;-70
2022/09/07 03:01:20;;;;;;;15.02;6.43;;;14.80;99.90;;;;;;4128384;28;20479;-62
2022/09/07 03:03:39;;;;;;;11.27;6.72;;;14.80;99.90;;;;;;4128720;28;20429;-63
2022/09/07 03:06:02;;;;;;;14.90;7.20;;;14.90;99.90;;;;;;4128098;28;20399;-63
2022/09/07 03:08:19;;;;;;;11.18;6.53;;;14.90;99.90;;;;;;4128839;28;20528;-63
2022/09/07 03:10:21;;;;;;;12.77;6.93;;;14.90;99.90;;;;;;4128229;28;20475;-62
2022/09/07 03:12:22;;;;;;;13.20;6.90;;;14.80;99.90;;;;;;4128680;28;20438;-63
2022/09/07 03:14:25;;;;;;;14.10;7.22;;;14.70;99.90;;;;;;4127617;28;20038;-63
2022/09/07 03:16:26;;;;;;;12.85;7.53;;;14.70;99.90;;;;;;4128604;28;20034;-66
2022/09/07 03:18:28;;;;;;;11.32;7.78;;;14.60;99.90;;;;;;4128146;28;20030;-62
2022/09/07 03:20:29;;;;;;;12.55;7.10;;;14.60;99.90;;;;;;4128432;28;20026;-62
2022/09/07 03:22:32;;;;;;;15.30;7.95;;;14.50;99.90;;;;;;4127846;28;20038;-62
2022/09/07 03:24:33;;;;;;;15.77;7.72;;;14.40;99.90;;;;;;4128561;28;20026;-62
2022/09/07 03:26:39;;;;;;;16.50;7.55;;;14.40;99.90;;;;;;4128255;28;20093;-61
2022/09/07 03:28:40;;;;;;;14.82;7.78;;;14.30;99.90;;;;;;4127822;28;20034;-62
2022/09/07 03:30:48;;;;;;;14.48;8.80;;;14.30;99.90;;;;;;4127900;28;20034;-62
2022/09/07 03:32:49;;;;;;;15.45;7.68;;;14.30;99.90;;;;;;4128026;28;20076;-63
2022/09/07 03:34:51;;;;;;;14.45;9.23;;;14.20;99.90;;;;;;4127829;28;20092;-62
2022/09/07 03:36:52;;;;;;;15.20;8.63;;;14.20;99.90;;;;;;4127856;28;20030;-62
2022/09/07 03:38:54;;;;;;;20.67;8.10;;;14.10;99.90;;;;;;4127840;28;20038;-63
2022/09/07 03:41:00;;;;;;;13.57;6.88;;;14.10;99.90;;;;;;4127564;28;20082;-63
2022/09/07 03:43:01;;;;;;;15.27;7.85;;;14.10;99.90;;;;;;4127772;28;20015;-62
2022/09/07 03:45:02;;;;;;;19.08;9.27;;;14.10;99.90;;;;;;4126078;28;20085;-62
2022/09/07 03:47:04;;;;;;;16.50;7.70;;;14.10;99.90;;;;;;4128020;28;20129;-64
2022/09/07 03:49:05;;;;;;;11.40;7.78;;;14.20;99.90;;;;;;4124685;28;20082;-61
2022/09/07 03:51:09;;;;;;;11.80;7.78;;;14.20;99.90;;;;;;4132152;28;20595;-61
2022/09/07 03:53:10;;;;;;;9.90;6.57;;;14.20;99.90;;;;;;4143592;28;20034;-62
2022/09/07 03:55:11;;;;;;;9.63;7.00;;;14.10;99.90;;;;;;4139080;28;20050;-64
2022/09/07 03:57:13;;;;;;;13.75;7.88;;;14.10;99.90;;;;;;4127508;28;20038;-64
2022/09/07 03:59:14;;;;;;;13.93;8.10;;;14.10;99.90;;;;;;4127632;28;20038;-63
2022/09/07 04:01:20;;;;;;;16.17;9.23;;;14.10;99.90;;;;;;4125853;28;20031;-65
2022/09/07 04:03:21;;;;;;;15.23;8.18;;;14.10;99.90;;;;;;4127501;28;20092;-65
2022/09/07 04:05:22;;;;;;;14.63;8.23;;;14.10;99.90;;;;;;4126276;28;20372;-63
2022/09/07 04:07:23;;;;;;;13.20;8.15;;;14.10;99.90;;;;;;4126458;28;20526;-64
2022/09/07 04:09:24;;;;;;;12.52;8.32;;;14.10;99.90;;;;;;4126144;28;20148;-64
2022/09/07 04:11:25;;;;;;;19.27;8.67;;;14.10;99.90;;;;;;4127329;28;20564;-65
2022/09/07 04:13:28;;;;;;;12.93;8.50;;;14.10;99.90;;;;;;4126104;28;20030;-64
2022/09/07 04:15:29;;;;;;;20.63;8.68;;;14.10;99.90;;;;;;4126346;28;20113;-64
2022/09/07 04:17:30;;;;;;;13.20;7.95;;;14.10;99.90;;;;;;4127444;28;20625;-63
2022/09/07 04:19:31;;;;;;;19.15;8.55;;;14.10;99.90;;;;;;4126752;28;20039;-63
2022/09/07 04:21:33;;;;;;;17.48;8.20;;;14.10;99.90;;;;;;4127045;28;20042;-63
2022/09/07 04:23:38;;;;;;;15.40;9.18;;;14.20;99.90;;;;;;4125550;28;20026;-64
2022/09/07 04:25:49;;;;;;;9.93;7.38;;;14.20;99.90;;;;;;4123571;28;20452;-71
2022/09/07 04:27:50;;;;;;;11.10;8.68;;;14.20;99.90;;;;;;4125738;28;20095;-64
2022/09/07 04:29:52;;;;;;;20.10;9.15;;;14.20;99.90;;;;;;4125651;28;20372;-66
2022/09/07 04:31:53;;;;;;;16.60;9.00;;;14.20;99.90;;;;;;4126736;28;20172;-64
2022/09/07 04:33:55;;;;;;;14.48;8.63;;;14.10;99.90;;;;;;4115934;28;20078;-69
2022/09/07 04:35:59;;;;;;;11.98;8.18;;;14.10;99.90;;;;;;4126202;28;20046;-62
2022/09/07 04:38:00;;;;;;;13.98;8.85;;;14.10;99.90;;;;;;4127221;28;20076;-62
2022/09/07 04:40:02;;;;;;;13.60;7.57;;;14.10;99.90;;;;;;4124791;28;20030;-62
2022/09/07 04:42:03;;;;;;;12.57;7.87;;;14.10;99.90;;;;;;4125602;28;20081;-61
2022/09/07 04:44:04;;;;;;;13.38;8.68;;;14.10;99.90;;;;;;4127258;28;20030;-63
2022/09/07 04:46:09;;;;;;;9.23;6.78;;;14.10;99.90;;;;;;4126409;28;20050;-68
2022/09/07 04:48:10;;;;;;;8.70;6.28;;;14.10;99.90;;;;;;4127174;28;20030;-61
2022/09/07 04:50:12;;;;;;;11.60;6.78;;;14.10;99.90;;;;;;4125442;28;20038;-66
2022/09/07 04:52:13;;;;;;;11.50;5.73;;;14.20;99.90;;;;;;4125414;28;20031;-69
2022/09/07 04:54:14;;;;;;;10.02;5.97;;;14.20;99.90;;;;;;4125795;28;20435;-70
2022/09/07 04:56:16;;;;;;;8.80;6.40;;;14.20;99.90;;;;;;4127820;28;20069;-65
2022/09/07 04:58:17;;;;;;;17.15;9.30;;;14.20;99.90;;;;;;4126781;28;20557;-63
2022/09/07 05:00:19;;;;;;;34.20;13.75;;;14.20;99.90;;;;;;4127356;28;20026;-63
2022/09/07 05:02:20;;;;;;;26.27;10.57;;;14.30;99.90;;;;;;4126707;28;20028;-65
2022/09/07 05:04:21;;;;;;;14.13;9.95;;;14.40;99.90;;;;;;4127689;28;20042;-64
2022/09/07 05:06:22;;;;;;;15.02;7.72;;;14.50;99.90;;;;;;4126807;28;20038;-65
2022/09/07 05:08:24;;;;;;;29.38;14.05;;;14.40;99.90;;;;;;4127013;28;20034;-64
2022/09/07 05:10:25;;;;;;;27.20;12.00;;;14.50;99.90;;;;;;4127044;28;20105;-64
2022/09/07 05:12:26;;;;;;;9.32;6.90;;;14.50;99.90;;;;;;4124139;28;20101;-64
2022/09/07 05:14:27;;;;;;;10.02;6.82;;;14.50;99.90;;;;;;4110767;28;20042;-64
2022/09/07 05:16:30;;;;;;;8.90;6.32;;;14.50;99.90;;;;;;4111811;28;20082;-66
2022/09/07 05:18:32;;;;;;;87.50;40.72;;;14.50;99.90;;;;;;4113894;28;20081;-66
2022/09/07 05:20:33;;;;;;;60.78;27.20;;;14.60;99.90;;;;;;4113924;28;20446;-69
2022/09/07 05:22:39;;;;;;;48.05;20.90;;;14.60;99.90;;;;;;4113403;28;20031;-64
2022/09/07 05:24:40;;;;;;;31.52;12.93;;;14.60;99.90;;;;;;4124759;28;20030;-62
2022/09/07 05:26:42;;;;;;;14.13;7.43;;;14.60;99.90;;;;;;4125190;28;20030;-62
2022/09/07 05:28:43;;;;;;;9.57;5.95;;;14.60;99.90;;;;;;4128276;28;20034;-64
2022/09/07 05:30:44;;;;;;;13.18;8.68;;;14.60;99.90;;;;;;4130442;28;20058;-69
2022/09/07 05:32:45;;;;;;;11.15;7.60;;;14.60;99.90;;;;;;4128517;28;20104;-62
2022/09/07 05:34:47;;;;;;;14.32;6.45;;;14.70;99.90;;;;;;4131478;28;20096;-65
2022/09/07 05:36:48;;;;;;;9.23;6.38;;;14.60;99.90;;;;;;4129151;28;20046;-64
2022/09/07 05:38:49;;;;;;;7.75;6.22;;;14.60;99.90;;;;;;4129172;28;20050;-71
2022/09/07 05:40:51;;;;;;;9.20;6.13;;;14.50;99.90;;;;;;4129272;28;20104;-69
2022/09/07 05:42:52;;;;;;;12.82;7.03;;;14.50;99.90;;;;;;4125008;28;20081;-69
2022/09/07 05:44:53;;;;;;;13.13;8.07;;;14.60;99.90;;;;;;4132031;28;20042;-69
2022/09/07 05:46:54;;;;;;;16.02;7.50;;;14.60;99.90;;;;;;4131865;28;20054;-64
2022/09/07 05:48:56;;;;;;;13.13;8.13;;;14.60;99.90;;;;;;4126366;28;20357;-69
2022/09/07 05:50:57;;;;;;;115.68;47.72;;;14.60;99.90;;;;;;4126671;28;20065;-68
2022/09/07 05:52:58;;;;;;;63.67;26.15;;;14.50;99.90;;;;;;4127917;28;20093;-69
2022/09/07 05:54:59;;;;;;;22.48;11.65;;;14.50;99.90;;;;;;4126329;28;20034;-65
2022/09/07 05:57:02;;;;;;;21.00;9.57;;;14.60;99.90;;;;;;4125592;28;20120;-64
2022/09/07 05:59:04;;;;;;;8.23;6.25;;;14.60;99.90;;;;;;4135888;28;20095;-63
2022/09/07 06:01:11;;;;;;;6.07;5.40;;;14.60;99.90;;;;;;4129778;28;20022;-64
2022/09/07 06:03:13;;;;;;;8.45;6.10;;;14.60;99.90;;;;;;4129156;28;20085;-64
2022/09/07 06:05:14;;;;;;;9.95;5.13;;;14.60;99.90;;;;;;4129403;28;20023;-64
2022/09/07 06:07:15;;;;;;;12.55;6.00;;;14.60;99.90;;;;;;4128592;28;20093;-63
2022/09/07 06:09:16;;;;;;;8.70;6.15;;;14.60;99.90;;;;;;4129204;28;20113;-64
2022/09/07 06:11:20;;;;;;;11.13;7.10;;;14.60;99.90;;;;;;4128567;28;20117;-63
2022/09/07 06:13:21;;;;;;;15.23;6.20;;;14.60;99.90;;;;;;4127799;28;20085;-63
2022/09/07 06:15:22;;;;;;;15.40;6.78;;;14.60;99.90;;;;;;4125721;28;20474;-63
2022/09/07 06:17:23;;;;;;;12.30;8.50;;;14.60;99.90;;;;;;4128878;28;21272;-63
2022/09/07 06:19:25;;;;;;;12.10;8.02;;;14.50;99.90;;;;;;4129073;28;20038;-64
2022/09/07 06:21:26;;;;;;;10.38;8.90;;;14.50;99.90;;;;;;4129121;28;20042;-63
2022/09/07 06:23:28;;;;;;;10.82;9.13;;;14.50;99.90;;;;;;4127704;28;20093;-65
2022/09/07 06:25:29;;;;;;;9.90;7.53;;;14.50;99.90;;;;;;4128549;28;20026;-65
2022/09/07 06:27:30;;;;;;;10.57;7.32;;;14.60;99.90;;;;;;4128541;28;20069;-61
2022/09/07 06:29:32;;;;;;;9.60;6.85;;;14.60;99.90;;;;;;4128356;28;20089;-63
2022/09/07 06:31:33;;;;;;;17.63;7.65;;;14.60;99.90;;;;;;4129512;28;20791;-66
2022/09/07 06:33:34;;;;;;;7.78;6.25;;;14.70;99.90;;;;;;4128131;28;20360;-71
2022/09/07 06:35:36;;;;;;;8.07;6.65;;;14.70;99.90;;;;;;4126112;28;20112;-63
2022/09/07 06:37:37;;;;;;;9.18;6.43;;;14.70;99.90;;;;;;4128238;28;20031;-63
2022/09/07 06:39:38;;;;;;;38.15;16.73;;;14.80;99.90;;;;;;4126533;28;20046;-64
2022/09/07 06:41:39;;;;;;;32.42;14.30;;;14.80;99.90;;;;;;4127316;28;20030;-67
2022/09/07 06:43:40;;;;;;;20.95;10.10;;;14.70;99.90;;;;;;4128302;28;20084;-62
2022/09/07 06:45:42;;;;;;;14.80;7.97;;;14.70;99.90;;;;;;4127516;28;20050;-64
2022/09/07 06:47:43;;;;;;;9.77;7.32;;;14.70;99.90;;;;;;4128542;28;20077;-63
2022/09/07 06:49:44;;;;;;;12.20;8.15;;;14.70;99.90;;;;;;4127017;28;20038;-65
2022/09/07 06:51:45;;;;;;;8.93;6.80;;;14.60;99.90;;;;;;4126733;28;20496;-65
2022/09/07 06:53:47;;;;;;;51.33;22.25;;;14.60;99.90;;;;;;4126278;28;20356;-63
2022/09/07 06:55:48;;;;;;;9.23;6.88;;;14.60;99.90;;;;;;4127802;28;20062;-64
2022/09/07 06:57:53;;;;;;;15.73;7.72;;;14.50;99.90;;;;;;4127851;28;20023;-63
2022/09/07 06:59:54;;;;;;;11.90;8.45;;;14.50;99.90;;;;;;4128012;28;20088;-63
2022/09/07 07:01:56;;;;;;;82.53;33.10;;;14.50;99.90;;;;;;4128149;28;20088;-63
2022/09/07 07:03:57;;;;;;;33.80;16.55;;;14.50;99.90;;;;;;4127700;28;20081;-64
2022/09/07 07:05:58;;;;;;;67.07;26.30;;;14.50;99.90;;;;;;4128119;28;20035;-64
2022/09/07 07:07:59;;;;;;;27.08;11.73;;;14.50;99.90;;;;;;4127477;28;20034;-64
2022/09/07 07:10:00;;;;;;;18.00;12.00;;;14.50;99.90;;;;;;4128503;28;20042;-65
2022/09/07 07:12:01;;;;;;;19.10;11.77;;;14.60;99.90;;;;;;4127526;28;20034;-63
2022/09/07 07:14:03;;;;;;;20.98;12.82;;;14.70;99.90;;;;;;4127914;28;20456;-64
2022/09/07 07:16:09;;;;;;;24.10;13.18;;;14.80;99.90;;;;;;4127946;28;20085;-63
2022/09/07 07:18:11;;;;;;;16.67;11.40;;;15.00;99.90;;;;;;4127086;28;20092;-63
2022/09/07 07:20:13;;;;;;;26.92;12.20;;;15.00;99.90;;;;;;4127592;28;20450;-65
2022/09/07 07:22:14;;;;;;;20.55;11.65;;;15.10;99.90;;;;;;4127096;28;20030;-61
2022/09/07 07:24:16;;;;;;;12.73;8.50;;;15.10;99.90;;;;;;4124309;28;20081;-60
2022/09/07 07:26:20;;;;;;;11.02;7.72;;;15.20;99.90;;;;;;4127454;28;20073;-61
2022/09/07 07:28:22;;;;;;;10.95;7.30;;;15.30;99.90;;;;;;4126352;28;20034;-62
2022/09/07 07:30:24;;;;;;;7.60;6.80;;;15.40;99.90;;;;;;4143158;28;20104;-60
2022/09/07 07:32:26;;;;;;;8.35;6.93;;;15.40;99.90;;;;;;4136222;28;20026;-62
2022/09/07 07:34:27;;;;;;;10.25;7.13;;;15.40;99.90;;;;;;4129339;28;20467;-64
2022/09/07 07:36:29;;;;;;;13.77;8.15;;;15.50;99.90;;;;;;4124540;28;20022;-64
2022/09/07 07:38:30;;;;;;;14.20;9.27;;;15.50;99.90;;;;;;4143924;28;20038;-65
2022/09/07 07:40:33;;;;;;;16.50;10.48;;;15.50;99.90;;;;;;4138269;28;20042;-63
2022/09/07 07:42:35;;;;;;;16.83;10.43;;;15.50;99.90;;;;;;4127529;28;20038;-63
2022/09/07 07:44:36;;;;;;;12.25;9.63;;;15.60;99.90;;;;;;4129237;28;20076;-65
2022/09/07 07:46:37;;;;;;;12.38;8.68;;;15.70;99.90;;;;;;4127466;28;20447;-64
2022/09/07 07:48:38;;;;;;;9.48;8.20;;;15.80;99.90;;;;;;4126715;28;20463;-64
2022/09/07 07:50:40;;;;;;;9.98;7.45;;;15.90;99.90;;;;;;4127544;28;20108;-65
2022/09/07 07:52:41;;;;;;;10.15;6.55;;;15.90;99.90;;;;;;4127571;28;20034;-64
2022/09/07 07:54:43;;;;;;;8.85;5.80;;;16.10;99.90;;;;;;4126335;28;20031;-64
2022/09/07 07:56:44;;;;;;;5.85;5.25;;;16.20;99.90;;;;;;4117057;28;20078;-61
2022/09/07 07:58:46;;;;;;;8.68;6.35;;;16.30;99.90;;;;;;4112362;28;20374;-60
2022/09/07 08:00:47;;;;;;;10.52;5.85;;;16.40;99.90;;;;;;4127745;28;20034;-62
2022/09/07 08:02:48;;;;;;;7.15;5.47;;;16.30;99.90;;;;;;4126182;28;20080;-62
2022/09/07 08:04:50;;;;;;;6.68;5.97;;;16.40;99.90;;;;;;4126159;28;20394;-63
2022/09/07 08:06:51;;;;;;;18.42;10.18;;;16.50;99.90;;;;;;4127206;28;20026;-65
2022/09/07 08:08:53;;;;;;;16.88;10.43;;;16.60;99.90;;;;;;4134841;28;20081;-64
2022/09/07 08:10:54;;;;;;;16.05;10.45;;;16.60;99.90;;;;;;4134348;28;20554;-66
2022/09/07 08:12:56;;;;;;;37.83;18.00;;;16.50;99.90;;;;;;4130834;28;20026;-61
2022/09/07 08:14:57;;;;;;;20.30;10.35;;;16.50;99.90;;;;;;4125034;28;20495;-72
2022/09/07 08:16:58;;;;;;;16.88;10.57;;;16.50;99.90;;;;;;4132016;28;20061;-63
2022/09/07 08:19:00;;;;;;;14.52;10.32;;;16.50;99.90;;;;;;4142973;28;20022;-64
2022/09/07 08:21:03;;;;;;;16.13;9.43;;;16.50;99.90;;;;;;4132342;28;20026;-63
2022/09/07 08:23:08;;;;;;;18.95;11.20;;;16.50;99.90;;;;;;4126091;28;20303;-64
2022/09/07 08:25:09;;;;;;;11.48;8.77;;;16.60;99.90;;;;;;4110697;28;20093;-65
2022/09/07 08:27:10;;;;;;;15.75;9.65;;;16.60;99.90;;;;;;4111812;28;20031;-61
2022/09/07 08:29:12;;;;;;;14.45;8.68;;;16.60;99.90;;;;;;4111201;28;20034;-65
2022/09/07 08:31:15;;;;;;;10.65;8.32;;;16.60;99.90;;;;;;4120027;28;20097;-62
2022/09/07 08:33:16;;;;;;;14.07;8.77;;;16.60;99.90;;;;;;4125829;28;20096;-64
2022/09/07 08:35:18;;;;;;;16.73;8.90;;;16.50;99.90;;;;;;4142016;28;20068;-64
2022/09/07 08:37:20;;;;;;;12.98;8.73;;;16.60;99.90;;;;;;4143310;28;20026;-62
2022/09/07 08:39:21;;;;;;;10.93;8.32;;;16.60;99.90;;;;;;4126198;28;20050;-64
2022/09/07 08:41:42;;;;;;;14.75;9.43;;;16.60;99.90;;;;;;4126006;28;20038;-64
2022/09/07 08:43:53;;;;;;;18.95;10.55;;;16.60;99.90;;;;;;4125150;28;20073;-66
2022/09/07 08:46:03;;;;;;;24.83;12.35;;;16.60;99.90;;;;;;4111147;28;20058;-65
2022/09/07 08:48:05;;;;;;;35.78;18.02;;;16.50;99.90;;;;;;4111064;28;20034;-65
2022/09/07 08:50:36;;;;;;;14.63;9.43;;;16.50;99.90;;;;;;4110772;28;20554;-64
2022/09/07 08:53:05;;;;;;;17.88;9.93;;;16.50;99.90;;;;;;4113658;28;20027;-67
2022/09/07 08:55:13;;;;;;;17.75;9.38;;;16.50;99.90;;;;;;4116706;28;20042;-65
2022/09/07 08:57:21;;;;;;;22.33;11.82;;;16.50;99.90;;;;;;4132933;28;20038;-64
2022/09/07 08:59:50;;;;;;;18.20;10.50;;;16.50;99.90;;;;;;4145873;28;20087;-64
2022/09/07 09:01:51;;;;;;;25.50;10.60;;;16.50;99.90;;;;;;4143028;28;20029;-66
2022/09/07 09:03:52;;;;;;;35.95;17.05;;;16.50;99.90;;;;;;4143687;28;20442;-62
2022/09/07 09:06:18;;;;;;;19.05;9.45;;;16.40;99.90;;;;;;4142292;28;20155;-58
2022/09/07 09:08:31;;;;;;;13.13;9.60;;;16.50;99.90;;;;;;4113885;28;20027;-63
2022/09/07 09:10:49;;;;;;;14.07;9.82;;;16.40;99.90;;;;;;4113235;28;20124;-61
2022/09/07 09:13:15;;;;;;;14.75;9.85;;;16.40;99.90;;;;;;4127395;28;20046;-62
2022/09/07 09:15:41;;;;;;;15.35;10.60;;;16.30;99.90;;;;;;4134770;28;20093;-62
2022/09/07 09:17:55;;;;;;;17.92;11.40;;;16.30;99.90;;;;;;4133131;28;20080;-65
2022/09/07 09:20:27;;;;;;;17.60;11.43;;;16.30;99.90;;;;;;4129341;28;20049;-65
2022/09/07 09:22:28;;;;;;;16.70;12.05;;;16.30;99.90;;;;;;4098243;28;20043;-61
2022/09/07 09:24:36;;;;;;;17.73;10.88;;;16.30;99.90;;;;;;4126331;28;20050;-62
2022/09/07 09:26:39;;;;;;;19.65;12.10;;;16.30;99.90;;;;;;4129051;28;20034;-62
2022/09/07 09:28:40;;;;;;;17.25;11.85;;;16.30;99.90;;;;;;4129234;28;20030;-62
2022/09/07 09:30:41;;;;;;;14.90;11.25;;;16.30;99.90;;;;;;4128476;28;20434;-61
2022/09/07 09:32:45;;;;;;;12.45;9.52;;;16.30;99.90;;;;;;4129500;28;20030;-62
2022/09/07 09:35:13;;;;;;;13.82;10.75;;;16.30;99.90;;;;;;4129256;28;20438;-62
2022/09/07 09:37:20;;;;;;;14.48;11.10;;;16.30;99.90;;;;;;4129517;28;20030;-61
2022/09/07 09:39:35;;;;;;;13.23;11.43;;;16.40;99.90;;;;;;4128274;28;20026;-61
2022/09/07 09:41:37;;;;;;;14.82;11.40;;;16.50;99.90;;;;;;4129416;28;20085;-64
2022/09/07 09:43:56;;;;;;;20.40;13.05;;;16.50;99.90;;;;;;4129192;28;20430;-64
2022/09/07 09:45:57;;;;;;;15.77;11.82;;;16.60;99.90;;;;;;4129552;28;20085;-62
2022/09/07 09:48:00;;;;;;;17.10;10.95;;;16.70;99.90;;;;;;4128690;28;20395;-65
2022/09/07 09:50:16;;;;;;;14.68;10.25;;;16.70;99.90;;;;;;4129249;28;20442;-64
2022/09/07 09:52:21;;;;;;;15.35;9.95;;;16.70;99.90;;;;;;4126329;28;20089;-64
2022/09/07 09:54:43;;;;;;;13.02;9.60;;;16.80;99.90;;;;;;4127186;28;20529;-65
2022/09/07 09:56:46;;;;;;;10.52;8.27;;;16.80;99.90;;;;;;4130981;28;20072;-70
2022/09/07 09:58:47;;;;;;;12.35;9.52;;;16.80;99.90;;;;;;4128173;28;20104;-63
2022/09/07 10:00:57;;;;;;;14.73;11.02;;;16.80;99.90;;;;;;4128665;28;20364;-65
2022/09/07 10:03:13;;;;;;;11.35;8.57;;;16.70;99.90;;;;;;4127436;28;20090;-69
2022/09/07 10:05:26;;;;;;;10.98;8.07;;;16.70;99.90;;;;;;4127356;28;20360;-65
2022/09/07 10:07:31;;;;;;;10.63;7.65;;;16.70;99.90;;;;;;4127875;28;20030;-65
2022/09/07 10:09:38;;;;;;;9.05;8.05;;;16.60;99.90;;;;;;4127793;28;20026;-66
2022/09/07 10:11:41;;;;;;;7.95;6.68;;;16.60;99.90;;;;;;4128772;28;20101;-65
2022/09/07 10:13:45;;;;;;;9.00;6.75;;;16.60;99.90;;;;;;4127867;28;20026;-65
2022/09/07 10:15:50;;;;;;;8.70;7.07;;;16.70;99.90;;;;;;4127223;28;20088;-65
2022/09/07 10:17:53;;;;;;;9.27;7.20;;;16.60;99.90;;;;;;4126486;28;20081;-66
2022/09/07 10:20:21;;;;;;;11.75;7.63;;;16.70;99.90;;;;;;4128439;28;20034;-63
2022/09/07 10:22:36;;;;;;;9.77;6.47;;;16.70;99.90;;;;;;4125379;28;20038;-66
2022/09/07 10:24:38;;;;;;;8.25;7.05;;;16.70;99.90;;;;;;4127347;28;20110;-61
2022/09/07 10:26:42;;;;;;;9.43;8.00;;;16.80;99.90;;;;;;4141361;28;20026;-62
2022/09/07 10:28:43;;;;;;;10.70;7.05;;;16.80;99.90;;;;;;4144670;28;20030;-61
2022/09/07 10:30:52;;;;;;;8.68;7.22;;;16.80;99.90;;;;;;4140359;28;20080;-63
2022/09/07 10:33:09;;;;;;;8.43;7.22;;;16.80;99.90;;;;;;4112426;28;20545;-64
2022/09/07 10:35:25;;;;;;;10.15;6.80;;;16.90;99.90;;;;;;4112903;28;20039;-64
2022/09/07 10:37:41;;;;;;;13.70;7.75;;;17.00;99.90;;;;;;4128928;28;20085;-67
2022/09/07 10:40:08;;;;;;;9.93;7.07;;;17.20;99.90;;;;;;4126265;28;20042;-65
2022/09/07 10:42:27;;;;;;;12.68;8.40;;;17.20;99.90;;;;;;4128176;28;20050;-65
2022/09/07 10:44:45;;;;;;;10.93;7.70;;;17.30;99.90;;;;;;4128149;28;20034;-65
2022/09/07 10:47:03;;;;;;;9.77;7.93;;;17.30;99.90;;;;;;4129628;28;20046;-63